Startseite

 
Links
   Guestbook

http://myblog.de/langen-radar

Gratis bloggen bei
myblog.de





 
Wetter...

Information Alpha recorded 111454Z

Ein Blick aus dem Fenster

EDDK 111420Z 15008KT 9999 -SHRA FEW012 SCT017 BKN023 06/04 Q1019 NOSIG

passt ganz gut zu meiner aktuellen Stimmungslage...

Stress wird so langsam weniger.

Soll ich mich jetzt freuen? Wieso überhaupt? Is there any reason?...

Information Alpha out. 

Pragfahrt, DESIM, Zeugnisse. Ferien.

11.12.06 15:54
 



Verantwortlich für die Inhalte ist der Autor. Dein kostenloses Blog bei myblog.de! Datenschutzerklärung
Werbung